sensor_id;sensor_type;location;lat;lon;timestamp;temperature;humidity
42037;DHT22;30340;52.004;5.908;2023-06-22T00:01:58;22.00;65.00
42037;DHT22;30340;52.004;5.908;2023-06-22T00:04:24;22.00;65.10
42037;DHT22;30340;52.004;5.908;2023-06-22T00:06:50;22.00;65.10
42037;DHT22;30340;52.004;5.908;2023-06-22T00:09:16;22.00;65.10
42037;DHT22;30340;52.004;5.908;2023-06-22T00:11:41;21.90;65.30
42037;DHT22;30340;52.004;5.908;2023-06-22T00:14:07;21.90;65.70
42037;DHT22;30340;52.004;5.908;2023-06-22T00:16:33;21.80;65.80
42037;DHT22;30340;52.004;5.908;2023-06-22T00:18:59;21.80;66.20
42037;DHT22;30340;52.004;5.908;2023-06-22T00:21:27;21.70;66.70
42037;DHT22;30340;52.004;5.908;2023-06-22T00:23:53;21.50;67.30
42037;DHT22;30340;52.004;5.908;2023-06-22T00:26:19;21.40;67.60
42037;DHT22;30340;52.004;5.908;2023-06-22T00:28:44;21.40;67.70
42037;DHT22;30340;52.004;5.908;2023-06-22T00:31:10;21.40;67.70
42037;DHT22;30340;52.004;5.908;2023-06-22T00:33:35;21.30;68.30
42037;DHT22;30340;52.004;5.908;2023-06-22T00:36:01;21.30;68.50
42037;DHT22;30340;52.004;5.908;2023-06-22T00:38:28;21.30;68.70
42037;DHT22;30340;52.004;5.908;2023-06-22T00:40:54;21.30;68.70
42037;DHT22;30340;52.004;5.908;2023-06-22T00:43:20;21.20;68.60
42037;DHT22;30340;52.004;5.908;2023-06-22T00:45:45;21.30;68.50
42037;DHT22;30340;52.004;5.908;2023-06-22T00:48:12;21.10;69.10
42037;DHT22;30340;52.004;5.908;2023-06-22T00:50:37;21.10;69.50
42037;DHT22;30340;52.004;5.908;2023-06-22T00:53:05;21.00;69.60
42037;DHT22;30340;52.004;5.908;2023-06-22T00:55:36;21.00;69.60
42037;DHT22;30340;52.004;5.908;2023-06-22T00:58:06;21.00;69.40
42037;DHT22;30340;52.004;5.908;2023-06-22T01:00:35;21.10;69.30
42037;DHT22;30340;52.004;5.908;2023-06-22T01:03:02;21.00;69.10
42037;DHT22;30340;52.004;5.908;2023-06-22T01:05:28;21.10;69.10
42037;DHT22;30340;52.004;5.908;2023-06-22T01:11:09;21.10;69.00
42037;DHT22;30340;52.004;5.908;2023-06-22T01:13:48;21.00;69.10
42037;DHT22;30340;52.004;5.908;2023-06-22T01:16:31;21.00;69.10
42037;DHT22;30340;52.004;5.908;2023-06-22T01:19:01;21.00;69.50
42037;DHT22;30340;52.004;5.908;2023-06-22T01:21:31;21.10;68.70
42037;DHT22;30340;52.004;5.908;2023-06-22T01:24:18;21.10;68.70
42037;DHT22;30340;52.004;5.908;2023-06-22T01:29:54;21.10;68.50
42037;DHT22;30340;52.004;5.908;2023-06-22T01:32:35;21.10;68.50
42037;DHT22;30340;52.004;5.908;2023-06-22T01:35:04;21.10;68.60
42037;DHT22;30340;52.004;5.908;2023-06-22T01:37:32;21.00;68.60
42037;DHT22;30340;52.004;5.908;2023-06-22T01:39:59;21.00;68.80
42037;DHT22;30340;52.004;5.908;2023-06-22T01:42:25;21.00;68.90
42037;DHT22;30340;52.004;5.908;2023-06-22T01:44:54;21.00;68.90
42037;DHT22;30340;52.004;5.908;2023-06-22T01:47:22;21.00;69.10
42037;DHT22;30340;52.004;5.908;2023-06-22T01:49:49;21.00;69.10
42037;DHT22;30340;52.004;5.908;2023-06-22T01:52:17;20.90;69.30
42037;DHT22;30340;52.004;5.908;2023-06-22T01:54:43;20.90;69.50
42037;DHT22;30340;52.004;5.908;2023-06-22T01:57:08;20.90;69.60
42037;DHT22;30340;52.004;5.908;2023-06-22T02:02:11;20.80;69.80
42037;DHT22;30340;52.004;5.908;2023-06-22T02:07:09;20.80;70.10
42037;DHT22;30340;52.004;5.908;2023-06-22T02:09:38;20.70;70.30
42037;DHT22;30340;52.004;5.908;2023-06-22T02:12:05;20.70;70.40
42037;DHT22;30340;52.004;5.908;2023-06-22T02:14:31;20.70;70.50
42037;DHT22;30340;52.004;5.908;2023-06-22T02:16:58;20.70;70.50
42037;DHT22;30340;52.004;5.908;2023-06-22T02:19:27;20.60;70.80
42037;DHT22;30340;52.004;5.908;2023-06-22T02:21:52;20.50;71.30
42037;DHT22;30340;52.004;5.908;2023-06-22T02:24:18;20.50;71.50
42037;DHT22;30340;52.004;5.908;2023-06-22T02:26:44;20.50;71.50
42037;DHT22;30340;52.004;5.908;2023-06-22T02:29:11;20.50;71.50
42037;DHT22;30340;52.004;5.908;2023-06-22T02:31:36;20.50;71.50
42037;DHT22;30340;52.004;5.908;2023-06-22T02:34:02;20.50;71.40
42037;DHT22;30340;52.004;5.908;2023-06-22T02:36:27;20.50;71.40
42037;DHT22;30340;52.004;5.908;2023-06-22T02:38:56;20.50;71.30
42037;DHT22;30340;52.004;5.908;2023-06-22T02:41:24;20.50;71.40
42037;DHT22;30340;52.004;5.908;2023-06-22T02:43:49;20.50;71.50
42037;DHT22;30340;52.004;5.908;2023-06-22T02:46:15;20.50;71.60
42037;DHT22;30340;52.004;5.908;2023-06-22T02:48:41;20.50;71.80
42037;DHT22;30340;52.004;5.908;2023-06-22T02:51:07;20.50;71.90
42037;DHT22;30340;52.004;5.908;2023-06-22T02:53:33;20.50;72.10
42037;DHT22;30340;52.004;5.908;2023-06-22T02:55:58;20.40;72.10
42037;DHT22;30340;52.004;5.908;2023-06-22T02:58:26;20.50;72.30
42037;DHT22;30340;52.004;5.908;2023-06-22T03:00:52;20.40;72.40
42037;DHT22;30340;52.004;5.908;2023-06-22T03:03:19;20.50;72.50
42037;DHT22;30340;52.004;5.908;2023-06-22T03:05:45;20.40;72.40
42037;DHT22;30340;52.004;5.908;2023-06-22T03:08:10;20.40;72.60
42037;DHT22;30340;52.004;5.908;2023-06-22T03:10:36;20.40;72.70
42037;DHT22;30340;52.004;5.908;2023-06-22T03:13:01;20.40;72.70
42037;DHT22;30340;52.004;5.908;2023-06-22T03:15:27;20.40;72.80
42037;DHT22;30340;52.004;5.908;2023-06-22T03:17:55;20.40;72.80
42037;DHT22;30340;52.004;5.908;2023-06-22T03:20:20;20.40;72.90
42037;DHT22;30340;52.004;5.908;2023-06-22T03:22:46;20.40;73.00
42037;DHT22;30340;52.004;5.908;2023-06-22T03:25:12;20.40;73.10
42037;DHT22;30340;52.004;5.908;2023-06-22T03:27:41;20.40;73.10
42037;DHT22;30340;52.004;5.908;2023-06-22T03:30:08;20.40;73.20
42037;DHT22;30340;52.004;5.908;2023-06-22T03:32:34;20.40;73.40
42037;DHT22;30340;52.004;5.908;2023-06-22T03:35:00;20.40;73.40
42037;DHT22;30340;52.004;5.908;2023-06-22T03:37:26;20.30;74.00
42037;DHT22;30340;52.004;5.908;2023-06-22T03:39:52;20.20;74.50
42037;DHT22;30340;52.004;5.908;2023-06-22T03:42:18;20.20;74.50
42037;DHT22;30340;52.004;5.908;2023-06-22T03:44:44;20.20;74.60
42037;DHT22;30340;52.004;5.908;2023-06-22T03:47:09;20.10;74.50
42037;DHT22;30340;52.004;5.908;2023-06-22T03:49:35;20.10;74.50
42037;DHT22;30340;52.004;5.908;2023-06-22T03:52:01;20.10;74.70
42037;DHT22;30340;52.004;5.908;2023-06-22T03:54:28;20.00;75.20
42037;DHT22;30340;52.004;5.908;2023-06-22T03:56:53;20.00;75.70
42037;DHT22;30340;52.004;5.908;2023-06-22T03:59:19;20.00;75.70
42037;DHT22;30340;52.004;5.908;2023-06-22T04:01:45;20.00;75.70
42037;DHT22;30340;52.004;5.908;2023-06-22T04:04:11;20.00;75.90
42037;DHT22;30340;52.004;5.908;2023-06-22T04:06:38;19.90;75.90
42037;DHT22;30340;52.004;5.908;2023-06-22T04:09:05;19.90;75.90
42037;DHT22;30340;52.004;5.908;2023-06-22T04:11:30;19.90;76.70
42037;DHT22;30340;52.004;5.908;2023-06-22T04:13:56;19.90;76.80
42037;DHT22;30340;52.004;5.908;2023-06-22T04:16:21;19.90;76.90
42037;DHT22;30340;52.004;5.908;2023-06-22T04:18:47;19.80;76.90
42037;DHT22;30340;52.004;5.908;2023-06-22T04:21:13;19.90;77.20
42037;DHT22;30340;52.004;5.908;2023-06-22T04:23:38;19.90;77.30
42037;DHT22;30340;52.004;5.908;2023-06-22T04:26:04;19.90;77.60
42037;DHT22;30340;52.004;5.908;2023-06-22T04:28:30;19.90;77.80
42037;DHT22;30340;52.004;5.908;2023-06-22T04:31:01;19.80;78.70
42037;DHT22;30340;52.004;5.908;2023-06-22T04:33:28;19.80;78.80
42037;DHT22;30340;52.004;5.908;2023-06-22T04:35:57;19.80;78.70
42037;DHT22;30340;52.004;5.908;2023-06-22T04:38:23;19.90;78.60
42037;DHT22;30340;52.004;5.908;2023-06-22T04:40:50;19.90;78.60
42037;DHT22;30340;52.004;5.908;2023-06-22T04:43:15;20.00;78.60
42037;DHT22;30340;52.004;5.908;2023-06-22T04:45:41;20.10;78.60
42037;DHT22;30340;52.004;5.908;2023-06-22T04:48:07;20.10;79.30
42037;DHT22;30340;52.004;5.908;2023-06-22T04:50:36;20.10;79.60
42037;DHT22;30340;52.004;5.908;2023-06-22T04:53:03;20.20;79.40
42037;DHT22;30340;52.004;5.908;2023-06-22T04:55:33;20.30;79.20
42037;DHT22;30340;52.004;5.908;2023-06-22T04:57:59;20.40;78.70
42037;DHT22;30340;52.004;5.908;2023-06-22T05:00:30;20.50;78.80
42037;DHT22;30340;52.004;5.908;2023-06-22T05:02:56;20.70;78.30
42037;DHT22;30340;52.004;5.908;2023-06-22T05:05:23;20.90;77.90
42037;DHT22;30340;52.004;5.908;2023-06-22T05:07:50;21.00;77.30
42037;DHT22;30340;52.004;5.908;2023-06-22T05:10:18;21.20;76.90
42037;DHT22;30340;52.004;5.908;2023-06-22T05:12:45;21.50;76.00
42037;DHT22;30340;52.004;5.908;2023-06-22T05:15:11;21.80;75.10
42037;DHT22;30340;52.004;5.908;2023-06-22T05:17:37;22.10;74.30
42037;DHT22;30340;52.004;5.908;2023-06-22T05:20:09;22.20;73.60
42037;DHT22;30340;52.004;5.908;2023-06-22T05:22:35;22.40;73.10
42037;DHT22;30340;52.004;5.908;2023-06-22T05:25:01;22.40;73.00
42037;DHT22;30340;52.004;5.908;2023-06-22T05:27:26;22.40;73.10
42037;DHT22;30340;52.004;5.908;2023-06-22T05:29:52;22.50;72.80
42037;DHT22;30340;52.004;5.908;2023-06-22T05:32:17;22.50;72.60
42037;DHT22;30340;52.004;5.908;2023-06-22T05:34:44;22.60;72.40
42037;DHT22;30340;52.004;5.908;2023-06-22T05:37:09;22.60;72.20
42037;DHT22;30340;52.004;5.908;2023-06-22T05:39:35;22.70;72.10
42037;DHT22;30340;52.004;5.908;2023-06-22T05:42:07;22.70;72.00
42037;DHT22;30340;52.004;5.908;2023-06-22T05:44:33;22.80;72.00
42037;DHT22;30340;52.004;5.908;2023-06-22T05:46:59;23.00;71.70
42037;DHT22;30340;52.004;5.908;2023-06-22T05:49:25;22.90;71.50
42037;DHT22;30340;52.004;5.908;2023-06-22T05:51:55;22.80;71.70
42037;DHT22;30340;52.004;5.908;2023-06-22T05:54:21;22.60;71.90
42037;DHT22;30340;52.004;5.908;2023-06-22T05:56:47;22.40;72.40
42037;DHT22;30340;52.004;5.908;2023-06-22T05:59:12;22.20;73.10
42037;DHT22;30340;52.004;5.908;2023-06-22T06:01:38;22.30;73.40
42037;DHT22;30340;52.004;5.908;2023-06-22T06:04:05;22.50;73.40
42037;DHT22;30340;52.004;5.908;2023-06-22T06:06:33;22.70;72.80
42037;DHT22;30340;52.004;5.908;2023-06-22T06:09:05;22.90;72.30
42037;DHT22;30340;52.004;5.908;2023-06-22T06:11:30;23.20;71.70
42037;DHT22;30340;52.004;5.908;2023-06-22T06:13:56;23.30;71.20
42037;DHT22;30340;52.004;5.908;2023-06-22T06:16:22;23.30;70.70
42037;DHT22;30340;52.004;5.908;2023-06-22T06:18:48;23.50;70.60
42037;DHT22;30340;52.004;5.908;2023-06-22T06:21:16;23.60;70.10
42037;DHT22;30340;52.004;5.908;2023-06-22T06:23:41;23.80;69.60
42037;DHT22;30340;52.004;5.908;2023-06-22T06:26:07;24.00;69.10
42037;DHT22;30340;52.004;5.908;2023-06-22T06:28:34;23.90;69.50
42037;DHT22;30340;52.004;5.908;2023-06-22T06:30:59;24.10;68.60
42037;DHT22;30340;52.004;5.908;2023-06-22T06:33:25;24.30;68.30
42037;DHT22;30340;52.004;5.908;2023-06-22T06:35:51;24.40;67.60
42037;DHT22;30340;52.004;5.908;2023-06-22T06:38:16;24.30;67.60
42037;DHT22;30340;52.004;5.908;2023-06-22T06:40:42;24.50;68.20
42037;DHT22;30340;52.004;5.908;2023-06-22T06:43:07;24.70;67.10
42037;DHT22;30340;52.004;5.908;2023-06-22T06:45:33;24.80;66.80
42037;DHT22;30340;52.004;5.908;2023-06-22T06:48:00;25.00;66.00
42037;DHT22;30340;52.004;5.908;2023-06-22T06:50:25;25.10;65.90
42037;DHT22;30340;52.004;5.908;2023-06-22T06:52:51;25.20;65.60
42037;DHT22;30340;52.004;5.908;2023-06-22T06:55:17;25.30;65.00
42037;DHT22;30340;52.004;5.908;2023-06-22T06:57:44;25.50;64.90
42037;DHT22;30340;52.004;5.908;2023-06-22T07:00:14;25.60;63.90
42037;DHT22;30340;52.004;5.908;2023-06-22T07:02:41;25.40;63.60
42037;DHT22;30340;52.004;5.908;2023-06-22T07:05:08;25.50;64.10
42037;DHT22;30340;52.004;5.908;2023-06-22T07:07:33;25.60;63.60
42037;DHT22;30340;52.004;5.908;2023-06-22T07:10:00;25.70;62.80
42037;DHT22;30340;52.004;5.908;2023-06-22T07:12:25;25.80;62.80
42037;DHT22;30340;52.004;5.908;2023-06-22T07:14:52;26.00;62.60
42037;DHT22;30340;52.004;5.908;2023-06-22T07:17:18;26.00;62.10
42037;DHT22;30340;52.004;5.908;2023-06-22T07:19:43;25.80;61.60
42037;DHT22;30340;52.004;5.908;2023-06-22T07:22:09;25.70;62.40
42037;DHT22;30340;52.004;5.908;2023-06-22T07:24:35;25.60;62.30
42037;DHT22;30340;52.004;5.908;2023-06-22T07:27:00;25.70;62.40
42037;DHT22;30340;52.004;5.908;2023-06-22T07:29:27;25.70;62.40
42037;DHT22;30340;52.004;5.908;2023-06-22T07:31:53;25.70;62.20
42037;DHT22;30340;52.004;5.908;2023-06-22T07:34:19;25.70;62.30
42037;DHT22;30340;52.004;5.908;2023-06-22T07:36:44;25.80;62.30
42037;DHT22;30340;52.004;5.908;2023-06-22T07:39:10;25.90;62.30
42037;DHT22;30340;52.004;5.908;2023-06-22T07:41:38;26.00;62.20
42037;DHT22;30340;52.004;5.908;2023-06-22T07:44:04;26.20;62.70
42037;DHT22;30340;52.004;5.908;2023-06-22T07:46:30;26.30;61.70
42037;DHT22;30340;52.004;5.908;2023-06-22T07:48:56;26.30;61.40
42037;DHT22;30340;52.004;5.908;2023-06-22T07:51:22;26.30;61.20
42037;DHT22;30340;52.004;5.908;2023-06-22T07:53:48;26.20;61.20
42037;DHT22;30340;52.004;5.908;2023-06-22T07:56:14;26.20;61.20
42037;DHT22;30340;52.004;5.908;2023-06-22T07:58:44;26.20;60.90
42037;DHT22;30340;52.004;5.908;2023-06-22T08:01:11;26.20;60.60
42037;DHT22;30340;52.004;5.908;2023-06-22T08:03:37;26.20;60.80
42037;DHT22;30340;52.004;5.908;2023-06-22T08:06:03;26.10;60.60
42037;DHT22;30340;52.004;5.908;2023-06-22T08:08:28;25.90;60.60
42037;DHT22;30340;52.004;5.908;2023-06-22T08:10:54;25.90;60.80
42037;DHT22;30340;52.004;5.908;2023-06-22T08:13:20;25.80;60.90
42037;DHT22;30340;52.004;5.908;2023-06-22T08:15:45;25.70;61.20
42037;DHT22;30340;52.004;5.908;2023-06-22T08:18:11;25.80;61.20
42037;DHT22;30340;52.004;5.908;2023-06-22T08:20:37;26.00;61.10
42037;DHT22;30340;52.004;5.908;2023-06-22T08:23:02;26.00;60.90
42037;DHT22;30340;52.004;5.908;2023-06-22T08:25:32;25.80;60.50
42037;DHT22;30340;52.004;5.908;2023-06-22T08:27:58;25.80;61.40
42037;DHT22;30340;52.004;5.908;2023-06-22T08:30:24;25.60;60.80
42037;DHT22;30340;52.004;5.908;2023-06-22T08:32:49;25.60;61.30
42037;DHT22;30340;52.004;5.908;2023-06-22T08:35:15;25.70;61.20
42037;DHT22;30340;52.004;5.908;2023-06-22T08:37:40;25.80;60.90
42037;DHT22;30340;52.004;5.908;2023-06-22T08:40:08;25.90;60.60
42037;DHT22;30340;52.004;5.908;2023-06-22T08:42:39;26.00;60.20
42037;DHT22;30340;52.004;5.908;2023-06-22T08:45:06;25.90;59.80
42037;DHT22;30340;52.004;5.908;2023-06-22T08:47:32;25.80;60.20
42037;DHT22;30340;52.004;5.908;2023-06-22T08:49:57;26.00;60.20
42037;DHT22;30340;52.004;5.908;2023-06-22T08:52:23;26.30;60.10
42037;DHT22;30340;52.004;5.908;2023-06-22T08:54:49;26.40;59.60
42037;DHT22;30340;52.004;5.908;2023-06-22T08:57:15;26.40;59.70
42037;DHT22;30340;52.004;5.908;2023-06-22T08:59:41;26.50;59.50
42037;DHT22;30340;52.004;5.908;2023-06-22T09:02:07;26.50;59.30
42037;DHT22;30340;52.004;5.908;2023-06-22T09:04:33;26.60;59.20
42037;DHT22;30340;52.004;5.908;2023-06-22T09:07:03;26.70;58.90
42037;DHT22;30340;52.004;5.908;2023-06-22T09:09:28;26.70;58.60
42037;DHT22;30340;52.004;5.908;2023-06-22T09:11:54;26.70;58.20
42037;DHT22;30340;52.004;5.908;2023-06-22T09:14:20;26.70;58.30
42037;DHT22;30340;52.004;5.908;2023-06-22T09:16:45;26.80;57.70
42037;DHT22;30340;52.004;5.908;2023-06-22T09:19:11;26.60;57.30
42037;DHT22;30340;52.004;5.908;2023-06-22T09:21:36;26.60;57.50
42037;DHT22;30340;52.004;5.908;2023-06-22T09:24:02;26.80;56.80
42037;DHT22;30340;52.004;5.908;2023-06-22T09:26:28;26.90;57.10
42037;DHT22;30340;52.004;5.908;2023-06-22T09:28:53;27.10;56.70
42037;DHT22;30340;52.004;5.908;2023-06-22T09:31:19;27.20;56.30
42037;DHT22;30340;52.004;5.908;2023-06-22T09:33:53;27.40;55.50
42037;DHT22;30340;52.004;5.908;2023-06-22T09:36:23;27.30;53.80
42037;DHT22;30340;52.004;5.908;2023-06-22T09:38:49;27.20;53.60
42037;DHT22;30340;52.004;5.908;2023-06-22T09:41:20;27.10;52.60
42037;DHT22;30340;52.004;5.908;2023-06-22T09:43:46;26.90;53.20
42037;DHT22;30340;52.004;5.908;2023-06-22T09:46:11;26.80;52.90
42037;DHT22;30340;52.004;5.908;2023-06-22T09:48:37;26.60;53.50
42037;DHT22;30340;52.004;5.908;2023-06-22T09:51:03;26.60;54.30
42037;DHT22;30340;52.004;5.908;2023-06-22T09:53:28;26.70;54.50
42037;DHT22;30340;52.004;5.908;2023-06-22T09:55:54;26.60;54.00
42037;DHT22;30340;52.004;5.908;2023-06-22T09:58:19;26.60;54.50
42037;DHT22;30340;52.004;5.908;2023-06-22T10:00:45;26.70;54.90
42037;DHT22;30340;52.004;5.908;2023-06-22T10:03:10;26.80;55.10
42037;DHT22;30340;52.004;5.908;2023-06-22T10:05:36;26.90;54.80
42037;DHT22;30340;52.004;5.908;2023-06-22T10:08:02;26.90;54.70
42037;DHT22;30340;52.004;5.908;2023-06-22T10:10:28;26.70;53.00
42037;DHT22;30340;52.004;5.908;2023-06-22T10:12:57;26.60;53.80
42037;DHT22;30340;52.004;5.908;2023-06-22T10:15:23;26.60;54.50
42037;DHT22;30340;52.004;5.908;2023-06-22T10:17:49;26.50;54.30
42037;DHT22;30340;52.004;5.908;2023-06-22T10:20:15;26.50;54.50
42037;DHT22;30340;52.004;5.908;2023-06-22T10:22:44;26.50;54.10
42037;DHT22;30340;52.004;5.908;2023-06-22T10:25:11;26.40;53.90
42037;DHT22;30340;52.004;5.908;2023-06-22T10:27:37;26.30;54.00
42037;DHT22;30340;52.004;5.908;2023-06-22T10:30:11;26.20;54.20
42037;DHT22;30340;52.004;5.908;2023-06-22T10:32:38;26.40;54.40
42037;DHT22;30340;52.004;5.908;2023-06-22T10:35:05;26.40;54.30
42037;DHT22;30340;52.004;5.908;2023-06-22T10:37:31;26.50;54.20
42037;DHT22;30340;52.004;5.908;2023-06-22T10:39:56;26.50;54.80
42037;DHT22;30340;52.004;5.908;2023-06-22T10:42:22;26.60;54.20
42037;DHT22;30340;52.004;5.908;2023-06-22T10:44:48;26.60;54.20
42037;DHT22;30340;52.004;5.908;2023-06-22T10:47:13;26.70;54.20
42037;DHT22;30340;52.004;5.908;2023-06-22T10:49:39;26.80;54.30
42037;DHT22;30340;52.004;5.908;2023-06-22T10:52:07;26.80;54.20
42037;DHT22;30340;52.004;5.908;2023-06-22T10:54:33;26.80;54.30
42037;DHT22;30340;52.004;5.908;2023-06-22T10:57:00;26.70;54.50
42037;DHT22;30340;52.004;5.908;2023-06-22T10:59:25;26.80;54.70
42037;DHT22;30340;52.004;5.908;2023-06-22T11:01:53;26.80;54.60
42037;DHT22;30340;52.004;5.908;2023-06-22T11:04:18;26.80;54.50
42037;DHT22;30340;52.004;5.908;2023-06-22T11:06:44;26.80;54.30
42037;DHT22;30340;52.004;5.908;2023-06-22T11:09:09;26.70;54.60
42037;DHT22;30340;52.004;5.908;2023-06-22T11:11:35;26.70;54.70
42037;DHT22;30340;52.004;5.908;2023-06-22T11:14:01;26.70;54.90
42037;DHT22;30340;52.004;5.908;2023-06-22T11:16:27;26.80;55.10
42037;DHT22;30340;52.004;5.908;2023-06-22T11:18:53;26.80;55.10
42037;DHT22;30340;52.004;5.908;2023-06-22T11:21:18;26.80;55.20
42037;DHT22;30340;52.004;5.908;2023-06-22T11:23:44;26.80;55.20
42037;DHT22;30340;52.004;5.908;2023-06-22T11:26:10;26.80;55.30
42037;DHT22;30340;52.004;5.908;2023-06-22T11:28:36;26.80;55.50
42037;DHT22;30340;52.004;5.908;2023-06-22T11:31:01;26.70;55.70
42037;DHT22;30340;52.004;5.908;2023-06-22T11:33:27;26.70;56.00
42037;DHT22;30340;52.004;5.908;2023-06-22T11:35:52;26.40;56.10
42037;DHT22;30340;52.004;5.908;2023-06-22T11:38:18;26.30;56.70
42037;DHT22;30340;52.004;5.908;2023-06-22T11:40:44;26.30;57.20
42037;DHT22;30340;52.004;5.908;2023-06-22T11:43:10;26.10;57.60
42037;DHT22;30340;52.004;5.908;2023-06-22T11:45:35;26.00;58.00
42037;DHT22;30340;52.004;5.908;2023-06-22T11:48:01;25.90;58.40
42037;DHT22;30340;52.004;5.908;2023-06-22T11:50:26;25.70;58.70
42037;DHT22;30340;52.004;5.908;2023-06-22T11:52:55;25.70;59.30
42037;DHT22;30340;52.004;5.908;2023-06-22T11:55:20;25.60;59.50
42037;DHT22;30340;52.004;5.908;2023-06-22T11:57:57;25.60;59.90
42037;DHT22;30340;52.004;5.908;2023-06-22T12:00:25;25.60;60.40
42037;DHT22;30340;52.004;5.908;2023-06-22T12:02:51;25.50;60.80
42037;DHT22;30340;52.004;5.908;2023-06-22T12:05:19;25.50;61.50
42037;DHT22;30340;52.004;5.908;2023-06-22T12:07:46;25.20;62.30
42037;DHT22;30340;52.004;5.908;2023-06-22T12:10:12;25.00;63.00
42037;DHT22;30340;52.004;5.908;2023-06-22T12:12:38;25.00;63.50
42037;DHT22;30340;52.004;5.908;2023-06-22T12:15:03;25.00;64.00
42037;DHT22;30340;52.004;5.908;2023-06-22T12:17:30;24.80;64.40
42037;DHT22;30340;52.004;5.908;2023-06-22T12:19:55;24.70;64.70
42037;DHT22;30340;52.004;5.908;2023-06-22T12:22:21;24.60;65.30
42037;DHT22;30340;52.004;5.908;2023-06-22T12:24:47;24.50;65.90
42037;DHT22;30340;52.004;5.908;2023-06-22T12:27:13;24.40;66.40
42037;DHT22;30340;52.004;5.908;2023-06-22T12:29:41;24.30;66.80
42037;DHT22;30340;52.004;5.908;2023-06-22T12:32:07;24.30;67.40
42037;DHT22;30340;52.004;5.908;2023-06-22T12:34:33;24.30;68.00
42037;DHT22;30340;52.004;5.908;2023-06-22T12:36:58;24.10;69.00
42037;DHT22;30340;52.004;5.908;2023-06-22T12:39:24;24.00;70.00
42037;DHT22;30340;52.004;5.908;2023-06-22T12:41:49;23.90;70.70
42037;DHT22;30340;52.004;5.908;2023-06-22T12:44:15;23.80;71.30
42037;DHT22;30340;52.004;5.908;2023-06-22T12:46:41;23.80;71.70
42037;DHT22;30340;52.004;5.908;2023-06-22T12:49:06;23.70;72.70
42037;DHT22;30340;52.004;5.908;2023-06-22T12:51:32;23.60;73.80
42037;DHT22;30340;52.004;5.908;2023-06-22T12:53:57;23.40;74.00
42037;DHT22;30340;52.004;5.908;2023-06-22T12:56:24;23.40;74.20
42037;DHT22;30340;52.004;5.908;2023-06-22T12:58:50;23.40;74.10
42037;DHT22;30340;52.004;5.908;2023-06-22T13:01:16;23.50;74.30
42037;DHT22;30340;52.004;5.908;2023-06-22T13:03:43;23.40;74.40
42037;DHT22;30340;52.004;5.908;2023-06-22T13:06:09;23.40;74.50
42037;DHT22;30340;52.004;5.908;2023-06-22T13:08:34;23.30;74.60
42037;DHT22;30340;52.004;5.908;2023-06-22T13:11:00;23.30;74.70
42037;DHT22;30340;52.004;5.908;2023-06-22T13:13:25;23.30;74.80
42037;DHT22;30340;52.004;5.908;2023-06-22T13:15:53;23.20;75.00
42037;DHT22;30340;52.004;5.908;2023-06-22T13:18:19;23.20;75.40
42037;DHT22;30340;52.004;5.908;2023-06-22T13:20:45;23.10;75.90
42037;DHT22;30340;52.004;5.908;2023-06-22T13:23:11;23.00;76.10
42037;DHT22;30340;52.004;5.908;2023-06-22T13:25:37;23.00;76.10
42037;DHT22;30340;52.004;5.908;2023-06-22T13:28:03;23.00;76.20
42037;DHT22;30340;52.004;5.908;2023-06-22T13:30:28;22.90;76.80
42037;DHT22;30340;52.004;5.908;2023-06-22T13:32:58;22.70;77.80
42037;DHT22;30340;52.004;5.908;2023-06-22T13:35:24;22.70;77.80
42037;DHT22;30340;52.004;5.908;2023-06-22T13:37:51;22.70;77.90
42037;DHT22;30340;52.004;5.908;2023-06-22T13:40:17;22.60;77.90
42037;DHT22;30340;52.004;5.908;2023-06-22T13:42:42;22.60;78.20
42037;DHT22;30340;52.004;5.908;2023-06-22T13:45:08;22.50;78.40
42037;DHT22;30340;52.004;5.908;2023-06-22T13:47:34;22.40;78.80
42037;DHT22;30340;52.004;5.908;2023-06-22T13:50:00;22.40;79.30
42037;DHT22;30340;52.004;5.908;2023-06-22T13:52:26;22.30;79.70
42037;DHT22;30340;52.004;5.908;2023-06-22T13:54:51;22.30;80.20
42037;DHT22;30340;52.004;5.908;2023-06-22T13:57:17;22.20;80.30
42037;DHT22;30340;52.004;5.908;2023-06-22T13:59:42;22.20;80.50
42037;DHT22;30340;52.004;5.908;2023-06-22T14:02:08;22.30;80.60
42037;DHT22;30340;52.004;5.908;2023-06-22T14:04:34;22.30;80.90
42037;DHT22;30340;52.004;5.908;2023-06-22T14:07:12;22.30;81.10
42037;DHT22;30340;52.004;5.908;2023-06-22T14:09:38;22.30;81.30
42037;DHT22;30340;52.004;5.908;2023-06-22T14:12:07;22.20;81.50
42037;DHT22;30340;52.004;5.908;2023-06-22T14:14:33;22.20;81.80
42037;DHT22;30340;52.004;5.908;2023-06-22T14:16:59;22.20;82.00
42037;DHT22;30340;52.004;5.908;2023-06-22T14:19:25;22.20;82.20
42037;DHT22;30340;52.004;5.908;2023-06-22T14:21:51;22.20;82.60
42037;DHT22;30340;52.004;5.908;2023-06-22T14:24:17;22.10;83.00
42037;DHT22;30340;52.004;5.908;2023-06-22T14:26:43;22.10;83.20
42037;DHT22;30340;52.004;5.908;2023-06-22T14:29:09;22.10;83.40
42037;DHT22;30340;52.004;5.908;2023-06-22T14:31:34;22.10;83.60
42037;DHT22;30340;52.004;5.908;2023-06-22T14:34:00;22.10;83.70
42037;DHT22;30340;52.004;5.908;2023-06-22T14:36:26;22.00;84.40
42037;DHT22;30340;52.004;5.908;2023-06-22T14:38:51;22.10;83.90
42037;DHT22;30340;52.004;5.908;2023-06-22T14:41:17;22.10;83.90
42037;DHT22;30340;52.004;5.908;2023-06-22T14:43:47;22.00;83.90
42037;DHT22;30340;52.004;5.908;2023-06-22T14:46:14;22.00;84.10
42037;DHT22;30340;52.004;5.908;2023-06-22T14:48:40;22.00;84.10
42037;DHT22;30340;52.004;5.908;2023-06-22T14:51:06;21.90;84.20
42037;DHT22;30340;52.004;5.908;2023-06-22T14:53:31;21.90;84.40
42037;DHT22;30340;52.004;5.908;2023-06-22T14:55:57;21.80;84.40
42037;DHT22;30340;52.004;5.908;2023-06-22T14:58:25;21.70;84.40
42037;DHT22;30340;52.004;5.908;2023-06-22T15:00:50;21.70;84.50
42037;DHT22;30340;52.004;5.908;2023-06-22T15:03:16;21.60;84.70
42037;DHT22;30340;52.004;5.908;2023-06-22T15:05:46;21.60;84.80
42037;DHT22;30340;52.004;5.908;2023-06-22T15:08:12;21.50;84.90
42037;DHT22;30340;52.004;5.908;2023-06-22T15:10:38;21.50;85.10
42037;DHT22;30340;52.004;5.908;2023-06-22T15:13:03;21.40;85.30
42037;DHT22;30340;52.004;5.908;2023-06-22T15:15:29;21.40;85.60
42037;DHT22;30340;52.004;5.908;2023-06-22T15:17:55;21.30;85.90
42037;DHT22;30340;52.004;5.908;2023-06-22T15:20:20;21.20;86.10
42037;DHT22;30340;52.004;5.908;2023-06-22T15:22:46;21.10;86.30
42037;DHT22;30340;52.004;5.908;2023-06-22T15:25:11;21.10;86.70
42037;DHT22;30340;52.004;5.908;2023-06-22T15:27:37;21.10;87.00
42037;DHT22;30340;52.004;5.908;2023-06-22T15:30:04;21.00;87.40
42037;DHT22;30340;52.004;5.908;2023-06-22T15:32:29;21.00;87.80
42037;DHT22;30340;52.004;5.908;2023-06-22T15:34:55;21.00;88.60
42037;DHT22;30340;52.004;5.908;2023-06-22T15:37:20;20.90;88.50